Time;durP1;ratioP1;P1;durP2;ratioP2;P2;SDS_P1;SDS_P2;PMS_P1;PMS_P2;Temp;Humidity;BMP_temperature;BMP_pressure;BME280_temperature;BME280_humidity;BME280_pressure;Samples;Min_cycle;Max_cycle;Signal;HPM_P1;HPM_P2
2022/02/20 00:00:56;;;;;;;7.07;1.70;;;;;;;6.00;79.84;100588.78;5009240;28;20526;-69
2022/02/20 00:03:21;;;;;;;7.07;2.22;;;;;;;5.95;80.37;100593.53;5027504;28;20095;-69
2022/02/20 00:05:47;;;;;;;9.05;2.50;;;;;;;5.98;79.73;100587.28;5039877;28;20037;-69
2022/02/20 00:08:12;;;;;;;11.02;2.10;;;;;;;6.00;80.45;100600.84;5026542;28;20033;-69
2022/02/20 00:10:38;;;;;;;8.50;2.28;;;;;;;6.03;80.45;100621.19;5007416;28;20033;-69
2022/02/20 00:13:04;;;;;;;8.77;2.30;;;;;;;5.99;79.85;100615.47;5007976;28;20079;-69
2022/02/20 00:15:31;;;;;;;13.57;2.10;;;;;;;5.94;80.26;100615.00;5042384;28;20036;-69
2022/02/20 00:17:58;;;;;;;14.02;2.10;;;;;;;6.00;79.71;100632.53;5039493;28;20025;-69
2022/02/20 00:20:30;;;;;;;12.60;2.42;;;;;;;6.02;79.42;100643.50;5025684;28;20143;-69
2022/02/20 00:22:56;;;;;;;13.15;2.83;;;;;;;5.97;80.10;100640.53;5041360;28;20170;-69
2022/02/20 00:25:22;;;;;;;13.15;3.08;;;;;;;5.94;79.09;100674.22;5040239;28;20029;-69
2022/02/20 00:27:47;;;;;;;8.45;2.65;;;;;;;5.92;78.18;100675.28;5024928;28;20037;-69
2022/02/20 00:30:13;;;;;;;8.70;2.72;;;;;;;5.95;78.53;100683.59;5023362;28;20124;-69
2022/02/20 00:32:39;;;;;;;9.23;3.00;;;;;;;5.96;78.63;100684.41;5025038;28;20033;-69
2022/02/20 00:35:07;;;;;;;11.68;3.03;;;;;;;5.88;79.68;100697.06;5025401;28;20040;-69
2022/02/20 00:37:32;;;;;;;11.73;3.50;;;;;;;5.84;79.72;100701.66;5040513;28;20497;-69
2022/02/20 00:39:58;;;;;;;12.20;3.20;;;;;;;5.81;79.96;100725.88;5038126;28;20032;-69
2022/02/20 00:42:23;;;;;;;13.82;3.38;;;;;;;5.81;81.18;100730.22;5009047;28;20519;-69
2022/02/20 00:44:49;;;;;;;14.75;4.53;;;;;;;5.66;81.18;100737.44;5023217;28;20029;-69
2022/02/20 00:47:14;;;;;;;15.18;3.45;;;;;;;5.53;80.08;100740.19;5026363;28;20036;-69
2022/02/20 00:49:40;;;;;;;16.35;3.47;;;;;;;5.44;80.51;100746.06;5024684;28;20037;-69
2022/02/20 00:52:06;;;;;;;10.40;3.50;;;;;;;5.28;80.24;100745.69;5024974;28;20116;-69
2022/02/20 00:54:32;;;;;;;12.43;3.50;;;;;;;5.26;79.36;100777.47;5021389;28;20033;-69
2022/02/20 00:56:58;;;;;;;16.45;3.70;;;;;;;5.10;79.97;100771.91;5020347;28;20052;-69
2022/02/20 00:59:24;;;;;;;14.55;5.47;;;;;;;5.09;80.17;100769.47;5024365;28;20029;-69
2022/02/20 01:01:49;;;;;;;8.68;3.60;;;;;;;4.96;80.19;100790.19;5031725;28;20039;-69
2022/02/20 01:04:15;;;;;;;17.55;4.30;;;;;;;4.95;79.23;100783.38;5017318;28;20032;-69
2022/02/20 01:06:40;;;;;;;10.88;3.50;;;;;;;4.86;79.42;100779.81;5037691;28;20029;-69
2022/02/20 01:09:06;;;;;;;12.55;3.70;;;;;;;4.81;79.41;100798.13;5004682;28;20056;-69
2022/02/20 01:11:32;;;;;;;8.63;3.80;;;;;;;4.74;78.19;100807.25;5002183;28;20021;-69
2022/02/20 01:13:58;;;;;;;15.95;3.65;;;;;;;4.67;78.72;100814.63;5023799;28;20394;-69
2022/02/20 01:16:23;;;;;;;11.63;2.53;;;;;;;4.54;78.91;100813.06;5022219;28;20088;-69
2022/02/20 01:18:49;;;;;;;9.60;2.25;;;;;;;4.55;78.81;100832.69;5041200;28;20052;-69
2022/02/20 01:21:14;;;;;;;9.73;2.78;;;;;;;4.52;78.91;100844.03;5025177;28;20549;-69
2022/02/20 01:23:40;;;;;;;10.70;2.95;;;;;;;4.46;79.71;100844.47;5020778;28;20039;-69
2022/02/20 01:26:05;;;;;;;7.03;2.65;;;;;;;4.44;79.82;100843.78;5005132;28;20501;-69
2022/02/20 01:28:31;;;;;;;13.50;3.50;;;;;;;4.49;79.84;100839.94;5037934;28;20028;-69
2022/02/20 01:30:57;;;;;;;10.80;2.30;;;;;;;4.40;80.35;100840.63;5024738;28;20033;-69
2022/02/20 01:33:22;;;;;;;9.15;2.47;;;;;;;4.34;80.75;100842.84;5022742;28;20037;-68
2022/02/20 01:35:48;;;;;;;14.15;2.65;;;;;;;4.34;80.56;100851.34;5006805;28;20099;-69
2022/02/20 01:38:17;;;;;;;12.15;2.42;;;;;;;4.35;80.81;100853.00;5021828;28;20025;-68
2022/02/20 01:40:45;;;;;;;9.50;2.97;;;;;;;4.30;80.97;100852.50;5023433;28;20067;-69
2022/02/20 01:43:12;;;;;;;8.20;2.95;;;;;;;4.30;81.76;100857.66;5020263;28;20108;-69
2022/02/20 01:45:39;;;;;;;9.35;2.70;;;;;;;4.29;81.78;100861.13;5023615;28;20123;-69
2022/02/20 01:48:06;;;;;;;7.85;2.65;;;;;;;4.36;81.30;100853.81;5042381;28;20103;-69
2022/02/20 01:50:33;;;;;;;9.65;2.45;;;;;;;4.40;81.01;100860.34;5006648;28;20069;-69
2022/02/20 01:52:59;;;;;;;8.70;1.90;;;;;;;4.41;81.14;100865.38;5021586;28;20067;-69
2022/02/20 01:55:25;;;;;;;16.95;3.60;;;;;;;4.45;81.08;100871.09;5023503;28;20440;-69
2022/02/20 01:58:09;;;;;;;4.63;2.30;;;;;;;4.41;81.63;100890.25;5022892;28;20026;-69
2022/02/20 02:00:56;;;;;;;8.45;2.60;;;;;;;4.54;81.21;100890.97;5010193;28;20040;-69
2022/02/20 02:03:48;;;;;;;10.00;2.20;;;;;;;4.45;81.39;100887.31;5018684;28;20033;-69
2022/02/20 02:06:28;;;;;;;12.15;3.58;;;;;;;4.40;81.94;100897.09;5006241;28;20160;-68
2022/02/20 02:08:55;;;;;;;6.43;2.00;;;;;;;4.44;81.75;100910.53;5022924;28;20119;-69
2022/02/20 02:11:41;;;;;;;9.75;2.40;;;;;;;4.42;82.16;100914.97;5014087;28;20033;-69
2022/02/20 02:14:59;;;;;;;17.70;2.33;;;;;;;4.45;81.41;100927.59;5025247;28;20044;-69
2022/02/20 02:17:45;;;;;;;18.60;2.90;;;;;;;4.48;81.74;100923.06;5023920;28;20516;-68
2022/02/20 02:20:29;;;;;;;14.38;3.00;;;;;;;4.49;81.67;100936.72;5021411;28;20059;-69
2022/02/20 02:23:03;;;;;;;12.88;3.15;;;;;;;4.45;82.52;100927.59;5007897;28;20029;-69
2022/02/20 02:25:37;;;;;;;13.70;2.55;;;;;;;4.54;82.46;100928.66;5022393;28;20090;-69
2022/02/20 02:28:23;;;;;;;8.15;1.88;;;;;;;4.46;82.04;100930.06;5023829;28;20036;-68
2022/02/20 02:30:56;;;;;;;13.48;2.78;;;;;;;4.49;82.36;100923.88;5022771;28;20033;-69
2022/02/20 02:33:30;;;;;;;9.07;2.05;;;;;;;4.43;82.15;100934.59;5024281;28;20059;-69
2022/02/20 02:35:57;;;;;;;5.15;3.05;;;;;;;4.49;81.70;100926.44;5022020;28;20037;-68
2022/02/20 02:38:27;;;;;;;10.00;1.63;;;;;;;4.52;82.02;100933.09;5004765;28;20029;-69
2022/02/20 02:41:01;;;;;;;13.18;2.22;;;;;;;4.49;81.50;100950.34;5021797;28;20029;-69
2022/02/20 02:43:28;;;;;;;10.23;2.13;;;;;;;4.53;82.08;100942.44;5008159;28;20128;-68
2022/02/20 02:45:54;;;;;;;3.78;1.67;;;;;;;4.51;82.38;100950.25;5019443;28;20033;-68
2022/02/20 02:48:20;;;;;;;12.80;2.53;;;;;;;4.42;82.56;100953.50;5021466;28;20558;-68
2022/02/20 02:50:46;;;;;;;10.25;2.33;;;;;;;4.38;83.22;100947.75;5021314;28;20119;-69
2022/02/20 02:53:13;;;;;;;11.07;2.20;;;;;;;4.33;83.05;100946.44;5004810;28;20097;-69
2022/02/20 02:55:43;;;;;;;8.27;2.97;;;;;;;4.39;82.81;100948.56;5019555;28;20469;-69
2022/02/20 02:58:09;;;;;;;17.42;2.85;;;;;;;4.47;82.65;100962.50;5044913;28;20105;-69
2022/02/20 03:00:35;;;;;;;15.35;2.88;;;;;;;4.45;82.05;100956.66;5016196;28;20545;-69
2022/02/20 03:03:01;;;;;;;12.43;2.67;;;;;;;4.40;82.51;100963.06;5008141;28;20029;-69
2022/02/20 03:05:27;;;;;;;13.75;3.20;;;;;;;4.28;82.81;100962.22;5017527;28;20037;-68
2022/02/20 03:07:52;;;;;;;6.13;2.42;;;;;;;4.32;82.62;100962.81;5019219;28;20034;-68
2022/02/20 03:10:19;;;;;;;14.20;2.78;;;;;;;4.34;81.72;100959.19;5018183;28;20430;-69
2022/02/20 03:12:45;;;;;;;10.75;3.33;;;;;;;4.43;81.44;100966.22;5030151;22;20086;-69
2022/02/20 03:15:12;;;;;;;18.40;2.90;;;;;;;4.24;81.57;100971.88;5061008;28;20080;-68
2022/02/20 03:17:38;;;;;;;11.30;4.25;;;;;;;4.14;81.49;100976.00;5059545;28;20040;-68
2022/02/20 03:20:04;;;;;;;13.27;4.18;;;;;;;4.15;81.86;100977.66;5080307;28;20032;-69
2022/02/20 03:22:33;;;;;;;10.18;2.95;;;;;;;4.07;81.59;100975.66;5054556;28;20064;-68
2022/02/20 03:24:58;;;;;;;14.57;2.88;;;;;;;4.02;81.24;100972.59;5061547;28;20560;-68
2022/02/20 03:27:24;;;;;;;12.27;2.88;;;;;;;4.06;81.08;100984.25;5062301;28;20031;-68
2022/02/20 03:29:51;;;;;;;9.23;2.70;;;;;;;4.04;81.57;100975.84;5061537;28;20035;-68
2022/02/20 03:32:17;;;;;;;8.88;2.63;;;;;;;3.99;81.62;100987.38;5075588;28;20071;-69
2022/02/20 03:34:43;;;;;;;8.52;3.30;;;;;;;3.93;82.02;100990.38;5058014;28;20411;-69
2022/02/20 03:37:09;;;;;;;8.70;3.00;;;;;;;3.90;82.15;100997.38;5058158;28;20062;-69
2022/02/20 03:39:36;;;;;;;5.78;2.75;;;;;;;3.83;82.97;100992.78;5062677;28;20098;-68
2022/02/20 03:42:08;;;;;;;8.13;2.90;;;;;;;3.82;82.77;100991.13;5061538;28;20050;-68
2022/02/20 03:45:05;;;;;;;11.23;2.75;;;;;;;3.77;82.46;100996.59;5037386;28;20060;-68
2022/02/20 03:47:32;;;;;;;8.98;2.75;;;;;;;3.65;82.88;100994.88;5055491;28;20374;-68
2022/02/20 03:50:00;;;;;;;17.08;2.70;;;;;;;3.58;83.39;100999.63;5042243;28;20033;-68
2022/02/20 03:52:32;;;;;;;10.13;2.78;;;;;;;3.60;83.46;101002.88;5060877;28;20023;-68
2022/02/20 03:54:59;;;;;;;9.60;3.38;;;;;;;3.51;83.65;100998.38;5057455;28;20047;-68
2022/02/20 03:57:32;;;;;;;7.63;3.38;;;;;;;3.48;83.95;100994.31;5067235;28;20032;-68
2022/02/20 04:00:10;;;;;;;8.90;2.90;;;;;;;3.50;83.92;100992.44;5081065;28;20043;-68
2022/02/20 04:02:41;;;;;;;9.00;2.95;;;;;;;3.46;83.82;100985.06;5074571;28;20763;-68
2022/02/20 04:05:10;;;;;;;10.82;2.88;;;;;;;3.40;84.03;100981.16;5055772;28;20036;-68
2022/02/20 04:07:37;;;;;;;11.07;2.80;;;;;;;3.40;83.75;100975.22;5057552;28;20119;-68
2022/02/20 04:10:04;;;;;;;10.63;2.78;;;;;;;3.36;83.59;100964.38;5059904;28;20093;-68
2022/02/20 04:12:30;;;;;;;5.70;2.53;;;;;;;3.29;84.21;100956.25;5063987;28;20036;-69
2022/02/20 04:14:56;;;;;;;9.32;2.83;;;;;;;3.28;84.46;100962.31;5043295;28;20040;-68
2022/02/20 04:17:24;;;;;;;13.18;4.00;;;;;;;3.24;84.29;100955.78;5055255;28;20120;-68
2022/02/20 04:19:51;;;;;;;8.98;3.20;;;;;;;3.22;84.64;100965.31;5045122;28;20021;-69
2022/02/20 04:22:17;;;;;;;7.93;3.45;;;;;;;3.21;84.85;100967.97;5054947;28;20016;-68
2022/02/20 04:24:43;;;;;;;9.02;3.53;;;;;;;3.19;84.87;100967.25;5062622;28;20078;-68
2022/02/20 04:27:12;;;;;;;12.85;4.35;;;;;;;3.19;84.96;100957.00;5064104;28;20038;-68
2022/02/20 04:29:43;;;;;;;8.77;4.65;;;;;;;3.18;84.92;100961.28;5059974;28;20127;-68
2022/02/20 04:32:09;;;;;;;11.95;4.65;;;;;;;3.14;85.48;100954.75;5047965;28;20704;-68
2022/02/20 04:34:35;;;;;;;10.30;4.07;;;;;;;3.11;85.48;100960.91;5072191;28;20035;-68
2022/02/20 04:37:00;;;;;;;10.07;4.68;;;;;;;3.12;85.71;100956.59;5069728;28;20249;-68
2022/02/20 04:39:26;;;;;;;9.07;4.32;;;;;;;3.12;85.61;100956.59;5060249;28;20394;-68
2022/02/20 04:41:53;;;;;;;12.40;5.47;;;;;;;3.11;85.84;100953.22;5062004;28;20027;-68
2022/02/20 04:44:30;;;;;;;10.68;4.85;;;;;;;3.06;86.24;100944.22;5059107;28;20032;-68
2022/02/20 04:46:57;;;;;;;11.15;5.10;;;;;;;3.03;85.85;100936.72;5046459;28;20070;-69
2022/02/20 04:49:23;;;;;;;13.48;5.38;;;;;;;3.14;85.69;100929.13;5055043;28;20059;-67
2022/02/20 04:52:07;;;;;;;9.98;5.68;;;;;;;3.08;86.35;100924.41;5078862;28;20138;-68
2022/02/20 04:54:51;;;;;;;10.63;5.53;;;;;;;3.08;86.39;100909.03;5075317;28;20054;-68
2022/02/20 04:57:21;;;;;;;11.02;6.47;;;;;;;3.17;86.87;100907.59;5045193;28;20454;-68
2022/02/20 04:59:47;;;;;;;18.40;6.53;;;;;;;3.06;86.44;100908.34;5045465;28;20035;-68
2022/02/20 05:02:12;;;;;;;14.10;6.30;;;;;;;3.09;87.35;100905.56;5046848;28;20028;-68
2022/02/20 05:04:46;;;;;;;15.77;6.13;;;;;;;3.02;87.15;100904.34;5045844;28;20036;-68
2022/02/20 05:07:11;;;;;;;16.70;6.63;;;;;;;3.02;87.72;100902.59;5041117;28;20028;-68
2022/02/20 05:09:39;;;;;;;13.40;6.22;;;;;;;2.99;87.82;100895.09;5061062;28;20020;-69
2022/02/20 05:12:05;;;;;;;14.52;7.30;;;;;;;2.99;88.67;100889.97;5054924;28;20039;-68
2022/02/20 05:14:31;;;;;;;15.45;6.57;;;;;;;3.06;88.59;100888.66;5057790;28;20036;-68
2022/02/20 05:17:06;;;;;;;14.68;7.25;;;;;;;3.06;89.03;100875.03;5056687;28;20425;-69
2022/02/20 05:19:52;;;;;;;19.17;7.47;;;;;;;3.26;88.96;100869.34;5072615;28;20032;-67
2022/02/20 05:22:18;;;;;;;14.23;7.75;;;;;;;3.25;89.17;100860.00;5059509;28;20043;-68
2022/02/20 05:24:50;;;;;;;17.63;7.05;;;;;;;3.24;89.40;100865.22;5055543;28;20023;-68
2022/02/20 05:27:16;;;;;;;16.48;6.55;;;;;;;3.21;89.45;100862.91;5059870;28;20047;-68
2022/02/20 05:29:43;;;;;;;17.42;7.13;;;;;;;3.30;89.58;100869.94;5059795;28;20405;-68
2022/02/20 05:32:12;;;;;;;15.65;6.25;;;;;;;3.25;89.83;100860.00;5058992;28;20051;-68
2022/02/20 05:34:55;;;;;;;20.50;7.85;;;;;;;3.20;90.17;100871.50;5058919;28;20063;-68
2022/02/20 05:37:23;;;;;;;18.50;6.05;;;;;;;3.29;90.22;100868.31;5063110;28;20694;-68
2022/02/20 05:39:49;;;;;;;14.85;6.90;;;;;;;3.23;90.59;100856.72;5067391;28;20593;-68
2022/02/20 05:42:15;;;;;;;15.20;6.72;;;;;;;3.30;90.30;100847.69;5073651;28;20036;-68
2022/02/20 05:44:47;;;;;;;24.90;7.30;;;;;;;3.30;90.67;100826.38;5056400;28;20093;-68
2022/02/20 05:47:14;;;;;;;18.45;7.72;;;;;;;3.32;91.41;100829.66;5061640;28;20036;-69
2022/02/20 05:49:40;;;;;;;17.60;6.63;;;;;;;3.27;91.49;100813.75;5058308;28;20055;-69
2022/02/20 05:52:06;;;;;;;25.80;7.63;;;;;;;3.29;92.38;100814.47;5049708;28;20505;-69
2022/02/20 05:54:40;;;;;;;19.65;6.55;;;;;;;3.33;92.81;100820.19;5060203;28;20037;-69
2022/02/20 05:57:07;;;;;;;20.80;7.60;;;;;;;3.28;92.96;100816.22;5057864;28;20135;-68
2022/02/20 05:59:37;;;;;;;17.58;6.15;;;;;;;3.46;93.30;100806.41;5046510;28;20285;-69
2022/02/20 06:02:02;;;;;;;14.80;6.57;;;;;;;3.38;93.77;100813.81;5060306;28;20069;-68
2022/02/20 06:04:28;;;;;;;22.88;6.53;;;;;;;3.40;94.15;100804.28;5045677;28;20139;-68
2022/02/20 06:06:59;;;;;;;20.80;5.90;;;;;;;3.34;94.97;100798.78;5056828;28;20047;-69
2022/02/20 06:09:54;;;;;;;17.73;7.63;;;;;;;3.29;95.60;100784.53;5060930;28;20498;-69
2022/02/20 06:12:26;;;;;;;23.73;7.03;;;;;;;3.33;96.20;100782.56;5054040;28;20041;-69
2022/02/20 06:15:15;;;;;;;26.92;6.93;;;;;;;3.47;96.24;100768.78;5058517;28;20028;-69
2022/02/20 06:17:59;;;;;;;25.63;7.25;;;;;;;3.42;96.45;100765.72;5061789;28;20043;-69
2022/02/20 06:20:43;;;;;;;22.23;7.28;;;;;;;3.41;96.72;100767.47;5055849;28;20047;-69
2022/02/20 06:23:34;;;;;;;16.73;6.07;;;;;;;3.49;97.10;100759.22;5057482;28;20059;-69
2022/02/20 06:26:23;;;;;;;20.88;6.57;;;;;;;3.50;97.96;100753.16;5057961;28;20412;-69
2022/02/20 06:28:48;;;;;;;24.88;6.40;;;;;;;3.56;98.06;100739.06;5060021;28;20394;-69
2022/02/20 06:31:18;;;;;;;19.70;6.60;;;;;;;3.63;98.84;100737.69;5061134;28;20039;-69
2022/02/20 06:33:47;;;;;;;31.58;7.35;;;;;;;3.66;98.83;100729.78;5059639;28;20059;-69
2022/02/20 06:36:13;;;;;;;20.27;5.32;;;;;;;3.70;99.21;100726.06;5042871;28;20024;-69
2022/02/20 06:38:43;;;;;;;22.38;5.63;;;;;;;3.68;100.00;100708.22;5063421;28;20110;-70
2022/02/20 06:41:10;;;;;;;26.77;5.88;;;;;;;3.80;100.00;100697.97;5054760;28;20035;-69
2022/02/20 06:43:42;;;;;;;33.78;6.35;;;;;;;3.96;100.00;100690.78;5038981;28;20048;-68
2022/02/20 06:46:31;;;;;;;25.02;5.07;;;;;;;4.09;100.00;100683.78;5072615;28;20063;-69
2022/02/20 06:49:22;;;;;;;31.23;5.90;;;;;;;4.19;100.00;100681.31;5050723;28;20551;-69
2022/02/20 06:52:08;;;;;;;36.65;5.15;;;;;;;4.39;100.00;100681.53;5065616;28;20048;-69
2022/02/20 06:54:56;;;;;;;43.38;4.93;;;;;;;4.58;100.00;100675.81;5059444;28;20071;-69
2022/02/20 06:57:45;;;;;;;35.40;4.80;;;;;;;4.67;100.00;100675.06;5061102;28;20044;-69
2022/02/20 07:00:13;;;;;;;36.25;4.78;;;;;;;4.94;100.00;100668.69;5076754;28;20399;-70
2022/02/20 07:02:39;;;;;;;28.02;3.88;;;;;;;5.08;100.00;100670.97;5058232;28;20044;-69
2022/02/20 07:05:06;;;;;;;30.67;5.90;;;;;;;5.07;100.00;100670.16;5067161;28;20047;-70
2022/02/20 07:07:32;;;;;;;27.80;3.72;;;;;;;5.21;100.00;100663.91;5079212;28;20121;-69
2022/02/20 07:09:57;;;;;;;30.70;4.10;;;;;;;5.29;100.00;100662.47;5060910;28;20024;-69
2022/02/20 07:12:23;;;;;;;39.45;4.05;;;;;;;5.35;100.00;100667.94;5057701;28;20047;-69
2022/02/20 07:14:48;;;;;;;29.17;4.20;;;;;;;5.37;100.00;100666.06;5073830;28;20504;-69
2022/02/20 07:17:14;;;;;;;36.00;5.07;;;;;;;5.46;100.00;100667.03;5075758;28;20036;-69
2022/02/20 07:19:39;;;;;;;35.95;5.32;;;;;;;5.59;100.00;100679.72;5053439;28;20024;-68
2022/02/20 07:22:05;;;;;;;25.40;3.75;;;;;;;5.79;100.00;100666.00;5055532;28;20039;-69
2022/02/20 07:24:31;;;;;;;24.77;3.80;;;;;;;5.90;100.00;100670.28;5054638;28;20047;-69
2022/02/20 07:26:56;;;;;;;32.33;3.70;;;;;;;5.87;100.00;100665.38;5075809;28;20040;-69
2022/02/20 07:29:22;;;;;;;30.83;5.30;;;;;;;5.88;100.00;100661.88;5054570;28;20024;-69
2022/02/20 07:31:47;;;;;;;43.92;6.53;;;;;;;5.92;100.00;100665.00;5061077;28;20044;-69
2022/02/20 07:34:13;;;;;;;41.55;9.98;;;;;;;6.01;100.00;100675.38;5060405;28;20037;-69
2022/02/20 07:36:41;;;;;;;58.85;13.75;;;;;;;6.06;100.00;100674.97;5075531;28;20516;-69
2022/02/20 07:39:11;;;;;;;53.30;11.45;;;;;;;6.09;100.00;100669.56;5057124;28;20024;-69
2022/02/20 07:41:37;;;;;;;35.47;5.60;;;;;;;6.21;100.00;100672.84;5068073;28;20036;-69
2022/02/20 07:44:04;;;;;;;24.85;5.20;;;;;;;6.15;100.00;100675.94;5079373;28;20042;-69
2022/02/20 07:46:30;;;;;;;28.90;3.83;;;;;;;6.13;100.00;100673.50;5081031;28;20054;-69
2022/02/20 07:48:59;;;;;;;30.75;6.07;;;;;;;6.19;100.00;100670.41;5076710;28;20032;-69
2022/02/20 07:51:25;;;;;;;30.45;4.35;;;;;;;6.32;100.00;100664.22;5071600;28;20028;-69
2022/02/20 07:53:51;;;;;;;25.67;5.93;;;;;;;6.26;100.00;100659.59;5072553;28;20508;-69
2022/02/20 07:56:17;;;;;;;22.17;3.42;;;;;;;6.47;100.00;100660.31;5065596;28;20033;-69
2022/02/20 07:58:43;;;;;;;23.52;3.90;;;;;;;6.45;100.00;100654.50;5070749;28;20545;-69
2022/02/20 08:01:10;;;;;;;30.00;4.97;;;;;;;6.58;100.00;100638.78;5051813;28;20751;-69
2022/02/20 08:03:36;;;;;;;24.10;4.38;;;;;;;6.53;100.00;100640.94;5048922;28;20040;-69
2022/02/20 08:06:03;;;;;;;19.05;5.50;;;;;;;6.51;100.00;100632.53;5072001;28;20043;-69
2022/02/20 08:08:30;;;;;;;27.63;4.55;;;;;;;6.57;100.00;100644.88;5082574;28;20039;-70
2022/02/20 08:11:02;;;;;;;24.45;4.32;;;;;;;6.59;100.00;100636.09;5062765;28;20036;-70
2022/02/20 08:13:28;;;;;;;14.35;3.22;;;;;;;6.70;100.00;100647.19;5085068;28;20104;-69
2022/02/20 08:15:54;;;;;;;28.33;5.88;;;;;;;6.69;100.00;100648.16;5064250;28;20032;-69
2022/02/20 08:18:20;;;;;;;17.17;3.75;;;;;;;6.66;100.00;100638.13;5073655;28;20032;-69
2022/02/20 08:20:46;;;;;;;18.73;3.45;;;;;;;6.69;100.00;100638.66;5064928;28;20031;-69
2022/02/20 08:23:13;;;;;;;16.05;3.15;;;;;;;6.70;100.00;100634.31;5086795;28;20035;-70
2022/02/20 08:25:40;;;;;;;31.15;4.13;;;;;;;6.74;100.00;100638.25;5043546;28;20415;-69
2022/02/20 08:28:07;;;;;;;27.75;4.03;;;;;;;6.82;100.00;100621.16;5051226;28;20032;-69
2022/02/20 08:30:34;;;;;;;23.85;3.28;;;;;;;6.89;100.00;100633.50;5056016;28;20032;-68
2022/02/20 08:32:59;;;;;;;22.73;3.92;;;;;;;6.82;100.00;100631.47;5065542;28;20405;-70
2022/02/20 08:35:25;;;;;;;24.02;5.55;;;;;;;6.92;100.00;100628.09;5056776;28;20073;-70
2022/02/20 08:37:51;;;;;;;29.95;5.38;;;;;;;6.97;100.00;100625.94;5057799;28;20027;-70
2022/02/20 08:40:19;;;;;;;14.90;3.58;;;;;;;6.98;100.00;100614.66;5054948;28;20037;-69
2022/02/20 08:42:46;;;;;;;12.88;3.33;;;;;;;7.07;100.00;100610.44;5046129;28;20039;-69
2022/02/20 08:45:15;;;;;;;14.18;3.58;;;;;;;7.09;100.00;100617.06;5051768;28;20559;-69
2022/02/20 08:47:41;;;;;;;16.13;4.15;;;;;;;7.09;100.00;100629.97;5077225;28;20613;-69
2022/02/20 08:50:11;;;;;;;13.93;2.90;;;;;;;7.11;100.00;100620.31;5056300;28;20032;-69
2022/02/20 08:52:38;;;;;;;16.05;3.53;;;;;;;7.12;100.00;100614.22;5059945;28;20036;-70
2022/02/20 08:55:05;;;;;;;19.95;4.78;;;;;;;7.18;100.00;100623.19;5071704;28;20033;-70
2022/02/20 08:57:31;;;;;;;18.58;3.42;;;;;;;7.25;100.00;100624.22;5075092;28;20059;-69
2022/02/20 08:59:58;;;;;;;16.23;4.10;;;;;;;7.22;100.00;100630.50;5074519;28;20132;-69
2022/02/20 09:02:24;;;;;;;14.57;3.47;;;;;;;7.18;100.00;100624.00;5058298;28;20037;-69
2022/02/20 09:04:50;;;;;;;13.00;3.28;;;;;;;7.20;100.00;100616.94;5053530;28;20036;-69
2022/02/20 09:07:15;;;;;;;10.18;2.40;;;;;;;7.28;100.00;100623.97;5071665;28;20082;-70
2022/02/20 09:09:41;;;;;;;15.93;2.65;;;;;;;7.28;100.00;100613.66;5075471;28;20028;-69
2022/02/20 09:12:07;;;;;;;15.10;3.45;;;;;;;7.26;100.00;100609.59;5059724;28;20037;-69
2022/02/20 09:14:33;;;;;;;15.00;2.97;;;;;;;7.31;100.00;100608.22;5068536;23;20146;-70
2022/02/20 09:17:00;;;;;;;19.05;3.38;;;;;;;7.35;100.00;100622.47;5063500;28;20036;-69
2022/02/20 09:19:26;;;;;;;21.30;3.05;;;;;;;7.41;100.00;100621.09;5060010;28;20031;-69
2022/02/20 09:21:52;;;;;;;18.83;5.03;;;;;;;7.35;100.00;100612.16;5058396;28;20024;-69
2022/02/20 09:24:18;;;;;;;11.43;4.10;;;;;;;7.40;100.00;100617.72;5071061;28;20050;-69
2022/02/20 09:26:44;;;;;;;15.00;2.75;;;;;;;7.47;100.00;100625.69;5043672;28;20401;-69
2022/02/20 09:29:09;;;;;;;10.60;3.03;;;;;;;7.45;100.00;100622.44;5045241;28;20126;-69
2022/02/20 09:31:35;;;;;;;18.77;3.47;;;;;;;7.50;100.00;100625.41;5048681;28;20041;-69
2022/02/20 09:34:00;;;;;;;18.30;2.83;;;;;;;7.47;100.00;100625.69;5023260;28;20033;-70
2022/02/20 09:36:27;;;;;;;15.55;3.65;;;;;;;7.53;100.00;100617.38;5064210;28;20393;-69
2022/02/20 09:38:54;;;;;;;17.52;3.00;;;;;;;7.56;100.00;100604.22;5061564;28;20520;-69
2022/02/20 09:41:24;;;;;;;16.95;3.15;;;;;;;7.64;100.00;100605.28;5063528;28;20495;-69
2022/02/20 09:43:54;;;;;;;13.90;2.20;;;;;;;7.59;100.00;100606.53;5044165;28;20038;-69
2022/02/20 09:46:20;;;;;;;12.32;2.42;;;;;;;7.63;100.00;100598.47;5045113;28;20416;-69
2022/02/20 09:48:50;;;;;;;14.93;2.50;;;;;;;7.64;100.00;100602.69;5058329;28;20047;-69
2022/02/20 09:51:15;;;;;;;13.30;3.80;;;;;;;7.65;100.00;100594.81;5025213;28;20044;-70
2022/02/20 09:53:40;;;;;;;15.30;2.20;;;;;;;7.61;100.00;100590.91;5047392;28;20033;-69
2022/02/20 09:56:06;;;;;;;6.72;1.80;;;;;;;7.65;100.00;100588.81;5056750;28;20029;-69
2022/02/20 09:58:32;;;;;;;13.07;4.18;;;;;;;7.69;100.00;100582.44;5043008;28;20705;-69
2022/02/20 10:01:04;;;;;;;12.05;2.13;;;;;;;7.72;100.00;100577.81;5046652;28;20028;-69
2022/02/20 10:03:35;;;;;;;9.05;2.13;;;;;;;7.72;100.00;100590.72;5041315;28;20032;-69
2022/02/20 10:06:03;;;;;;;13.02;2.25;;;;;;;7.72;100.00;100582.13;5058891;28;20050;-70
2022/02/20 10:08:39;;;;;;;15.73;2.70;;;;;;;7.72;100.00;100567.50;5046992;28;20082;-70
2022/02/20 10:11:20;;;;;;;8.55;2.05;;;;;;;7.85;100.00;100572.28;5041067;28;20502;-69
2022/02/20 10:14:07;;;;;;;17.15;2.53;;;;;;;7.87;100.00;100579.91;5057917;28;20044;-69
2022/02/20 10:16:33;;;;;;;18.60;2.75;;;;;;;7.97;100.00;100570.34;5033752;28;20048;-69
2022/02/20 10:18:59;;;;;;;16.73;4.18;;;;;;;7.93;100.00;100569.81;5058745;28;20173;-69
2022/02/20 10:21:47;;;;;;;15.90;3.15;;;;;;;8.01;100.00;100571.69;5046637;28;20117;-69
2022/02/20 10:25:05;;;;;;;14.88;3.08;;;;;;;8.10;100.00;100578.56;5060567;28;20456;-69
2022/02/20 10:27:54;;;;;;;15.98;2.47;;;;;;;8.18;100.00;100580.44;5042328;28;20586;-70
2022/02/20 10:30:35;;;;;;;14.68;2.90;;;;;;;8.29;100.00;100576.81;5046357;28;20036;-69
2022/02/20 10:33:20;;;;;;;18.08;3.13;;;;;;;8.30;99.78;100597.31;5047800;28;20036;-70
2022/02/20 10:35:51;;;;;;;9.75;2.58;;;;;;;8.45;98.96;100555.53;5055474;28;20043;-70
2022/02/20 10:38:22;;;;;;;14.88;2.17;;;;;;;8.59;98.26;100557.59;5046145;28;20329;-69
2022/02/20 10:40:53;;;;;;;17.30;2.55;;;;;;;8.61;98.21;100563.44;5039877;28;20123;-69
2022/02/20 10:43:27;;;;;;;16.90;2.58;;;;;;;8.60;97.77;100559.19;5060541;28;20032;-70
2022/02/20 10:46:11;;;;;;;20.77;2.88;;;;;;;8.65;97.25;100554.41;5054749;28;20032;-69
2022/02/20 10:48:39;;;;;;;14.68;5.75;;;;;;;8.70;96.79;100552.19;5059964;28;20047;-69
2022/02/20 10:51:05;;;;;;;19.90;2.45;;;;;;;8.70;96.36;100549.59;5062008;28;20059;-70
2022/02/20 10:53:31;;;;;;;7.15;1.85;;;;;;;8.72;96.06;100549.44;5045130;28;20138;-69
2022/02/20 10:55:59;;;;;;;15.73;2.60;;;;;;;8.82;96.14;100551.94;5048192;28;20054;-69
2022/02/20 10:58:31;;;;;;;10.77;2.15;;;;;;;8.69;96.24;100553.13;5040252;28;20036;-69
2022/02/20 11:01:01;;;;;;;13.80;2.80;;;;;;;8.69;95.73;100560.91;5061435;28;20505;-69
2022/02/20 11:03:29;;;;;;;11.75;3.22;;;;;;;8.69;95.87;100560.09;5062718;28;20031;-69
2022/02/20 11:05:56;;;;;;;9.13;2.63;;;;;;;8.66;95.88;100568.94;5045799;28;20040;-70
2022/02/20 11:08:26;;;;;;;10.18;1.83;;;;;;;8.68;95.21;100561.88;5048157;28;20043;-70
2022/02/20 11:10:53;;;;;;;18.90;3.22;;;;;;;8.80;95.13;100549.50;5045536;28;20040;-69
2022/02/20 11:13:19;;;;;;;10.98;2.33;;;;;;;8.82;94.74;100554.53;5049160;28;20035;-69
2022/02/20 11:15:48;;;;;;;19.20;4.07;;;;;;;8.80;95.04;100571.94;5029955;28;20493;-70
2022/02/20 11:18:16;;;;;;;18.52;3.30;;;;;;;8.82;95.42;100551.94;5060597;28;20033;-69
2022/02/20 11:20:48;;;;;;;16.50;3.78;;;;;;;8.87;95.40;100545.38;5063227;28;20040;-69
2022/02/20 11:23:21;;;;;;;12.40;3.10;;;;;;;8.84;95.76;100550.84;5062658;28;20091;-70
2022/02/20 11:25:49;;;;;;;13.88;2.40;;;;;;;8.86;95.05;100550.69;5058783;28;20025;-69
2022/02/20 11:28:15;;;;;;;11.73;2.38;;;;;;;8.80;94.29;100543.50;5065545;28;20040;-69
2022/02/20 11:30:42;;;;;;;12.63;2.88;;;;;;;8.92;94.40;100539.72;5062997;28;20410;-69
2022/02/20 11:33:09;;;;;;;9.43;2.45;;;;;;;8.88;94.51;100533.25;5045376;28;20330;-69
2022/02/20 11:35:42;;;;;;;9.98;2.55;;;;;;;8.90;94.52;100526.16;5041528;28;20032;-69